sensor_id;sensor_type;location;lat;lon;timestamp;P1;durP1;ratioP1;P2;durP2;ratioP2
2396;SDS011;1209;48.410;9.054;2022-07-11T00:01:42;2.10;;;1.23;;
2396;SDS011;1209;48.410;9.054;2022-07-11T00:04:07;1.33;;;1.33;;
2396;SDS011;1209;48.410;9.054;2022-07-11T00:06:33;1.53;;;1.43;;
2396;SDS011;1209;48.410;9.054;2022-07-11T00:08:58;1.20;;;1.20;;
2396;SDS011;1209;48.410;9.054;2022-07-11T00:11:24;2.83;;;1.80;;
2396;SDS011;1209;48.410;9.054;2022-07-11T00:13:49;1.90;;;1.80;;
2396;SDS011;1209;48.410;9.054;2022-07-11T00:16:15;1.93;;;1.50;;
2396;SDS011;1209;48.410;9.054;2022-07-11T00:18:41;3.97;;;1.37;;
2396;SDS011;1209;48.410;9.054;2022-07-11T00:21:06;1.30;;;1.30;;
2396;SDS011;1209;48.410;9.054;2022-07-11T00:23:32;2.40;;;1.53;;
2396;SDS011;1209;48.410;9.054;2022-07-11T00:25:57;1.10;;;1.10;;
2396;SDS011;1209;48.410;9.054;2022-07-11T00:28:22;2.33;;;1.37;;
2396;SDS011;1209;48.410;9.054;2022-07-11T00:30:48;1.23;;;1.20;;
2396;SDS011;1209;48.410;9.054;2022-07-11T00:33:13;1.20;;;1.20;;
2396;SDS011;1209;48.410;9.054;2022-07-11T00:35:39;1.13;;;1.07;;
2396;SDS011;1209;48.410;9.054;2022-07-11T00:38:04;1.37;;;1.30;;
2396;SDS011;1209;48.410;9.054;2022-07-11T00:40:29;1.17;;;1.17;;
2396;SDS011;1209;48.410;9.054;2022-07-11T00:42:55;1.40;;;1.40;;
2396;SDS011;1209;48.410;9.054;2022-07-11T00:45:21;1.40;;;1.30;;
2396;SDS011;1209;48.410;9.054;2022-07-11T00:47:46;0.97;;;0.97;;
2396;SDS011;1209;48.410;9.054;2022-07-11T00:50:11;2.43;;;1.13;;
2396;SDS011;1209;48.410;9.054;2022-07-11T00:52:38;1.57;;;1.47;;
2396;SDS011;1209;48.410;9.054;2022-07-11T00:55:05;1.90;;;1.27;;
2396;SDS011;1209;48.410;9.054;2022-07-11T00:57:32;2.63;;;1.57;;
2396;SDS011;1209;48.410;9.054;2022-07-11T00:59:58;1.83;;;1.73;;
2396;SDS011;1209;48.410;9.054;2022-07-11T01:02:24;2.77;;;1.43;;
2396;SDS011;1209;48.410;9.054;2022-07-11T01:04:49;3.17;;;1.57;;
2396;SDS011;1209;48.410;9.054;2022-07-11T01:07:15;1.33;;;1.23;;
2396;SDS011;1209;48.410;9.054;2022-07-11T01:09:40;1.50;;;1.40;;
2396;SDS011;1209;48.410;9.054;2022-07-11T01:12:06;1.27;;;1.27;;
2396;SDS011;1209;48.410;9.054;2022-07-11T01:14:31;1.73;;;1.63;;
2396;SDS011;1209;48.410;9.054;2022-07-11T01:16:57;1.10;;;1.00;;
2396;SDS011;1209;48.410;9.054;2022-07-11T01:19:22;1.53;;;1.43;;
2396;SDS011;1209;48.410;9.054;2022-07-11T01:21:49;1.23;;;1.10;;
2396;SDS011;1209;48.410;9.054;2022-07-11T01:24:16;1.20;;;1.20;;
2396;SDS011;1209;48.410;9.054;2022-07-11T01:26:43;2.20;;;1.23;;
2396;SDS011;1209;48.410;9.054;2022-07-11T01:29:12;1.40;;;1.30;;
2396;SDS011;1209;48.410;9.054;2022-07-11T01:31:38;3.23;;;1.60;;
2396;SDS011;1209;48.410;9.054;2022-07-11T01:34:04;1.70;;;1.60;;
2396;SDS011;1209;48.410;9.054;2022-07-11T01:36:30;1.13;;;1.13;;
2396;SDS011;1209;48.410;9.054;2022-07-11T01:38:55;1.63;;;1.53;;
2396;SDS011;1209;48.410;9.054;2022-07-11T01:41:21;2.80;;;1.67;;
2396;SDS011;1209;48.410;9.054;2022-07-11T01:43:46;1.47;;;1.37;;
2396;SDS011;1209;48.410;9.054;2022-07-11T01:46:12;1.10;;;1.00;;
2396;SDS011;1209;48.410;9.054;2022-07-11T01:48:37;1.70;;;1.60;;
2396;SDS011;1209;48.410;9.054;2022-07-11T01:51:02;1.07;;;1.07;;
2396;SDS011;1209;48.410;9.054;2022-07-11T01:53:28;1.00;;;1.00;;
2396;SDS011;1209;48.410;9.054;2022-07-11T01:55:53;1.20;;;1.20;;
2396;SDS011;1209;48.410;9.054;2022-07-11T01:58:19;1.50;;;1.40;;
2396;SDS011;1209;48.410;9.054;2022-07-11T02:00:44;2.23;;;1.60;;
2396;SDS011;1209;48.410;9.054;2022-07-11T02:03:10;1.37;;;1.37;;
2396;SDS011;1209;48.410;9.054;2022-07-11T02:05:35;1.50;;;1.40;;
2396;SDS011;1209;48.410;9.054;2022-07-11T02:08:04;2.13;;;1.73;;
2396;SDS011;1209;48.410;9.054;2022-07-11T02:10:42;1.23;;;1.13;;
2396;SDS011;1209;48.410;9.054;2022-07-11T02:13:09;1.17;;;1.17;;
2396;SDS011;1209;48.410;9.054;2022-07-11T02:15:35;2.70;;;1.63;;
2396;SDS011;1209;48.410;9.054;2022-07-11T02:18:00;1.63;;;1.53;;
2396;SDS011;1209;48.410;9.054;2022-07-11T02:20:26;1.20;;;1.20;;
2396;SDS011;1209;48.410;9.054;2022-07-11T02:22:52;1.43;;;1.17;;
2396;SDS011;1209;48.410;9.054;2022-07-11T02:25:18;4.57;;;1.20;;
2396;SDS011;1209;48.410;9.054;2022-07-11T02:27:44;1.53;;;1.50;;
2396;SDS011;1209;48.410;9.054;2022-07-11T02:30:10;2.10;;;1.60;;
2396;SDS011;1209;48.410;9.054;2022-07-11T02:32:36;1.30;;;1.30;;
2396;SDS011;1209;48.410;9.054;2022-07-11T02:35:02;1.43;;;1.33;;
2396;SDS011;1209;48.410;9.054;2022-07-11T02:37:27;1.63;;;1.53;;
2396;SDS011;1209;48.410;9.054;2022-07-11T02:39:53;1.50;;;1.40;;
2396;SDS011;1209;48.410;9.054;2022-07-11T02:42:18;1.60;;;1.40;;
2396;SDS011;1209;48.410;9.054;2022-07-11T02:44:44;1.50;;;1.40;;
2396;SDS011;1209;48.410;9.054;2022-07-11T02:47:10;1.60;;;1.50;;
2396;SDS011;1209;48.410;9.054;2022-07-11T02:49:36;2.40;;;1.80;;
2396;SDS011;1209;48.410;9.054;2022-07-11T02:52:01;2.47;;;1.60;;
2396;SDS011;1209;48.410;9.054;2022-07-11T02:54:27;1.63;;;1.53;;
2396;SDS011;1209;48.410;9.054;2022-07-11T02:56:53;1.63;;;1.53;;
2396;SDS011;1209;48.410;9.054;2022-07-11T02:59:19;1.53;;;1.53;;
2396;SDS011;1209;48.410;9.054;2022-07-11T03:01:44;1.60;;;1.50;;
2396;SDS011;1209;48.410;9.054;2022-07-11T03:04:10;2.30;;;2.10;;
2396;SDS011;1209;48.410;9.054;2022-07-11T03:06:36;3.20;;;1.77;;
2396;SDS011;1209;48.410;9.054;2022-07-11T03:09:03;2.20;;;1.40;;
2396;SDS011;1209;48.410;9.054;2022-07-11T03:11:30;2.30;;;1.70;;
2396;SDS011;1209;48.410;9.054;2022-07-11T03:13:55;1.60;;;1.50;;
2396;SDS011;1209;48.410;9.054;2022-07-11T03:16:21;1.23;;;1.23;;
2396;SDS011;1209;48.410;9.054;2022-07-11T03:18:47;1.77;;;1.67;;
2396;SDS011;1209;48.410;9.054;2022-07-11T03:21:12;1.33;;;1.30;;
2396;SDS011;1209;48.410;9.054;2022-07-11T03:23:37;2.40;;;1.67;;
2396;SDS011;1209;48.410;9.054;2022-07-11T03:26:03;2.00;;;1.20;;
2396;SDS011;1209;48.410;9.054;2022-07-11T03:28:28;1.57;;;1.47;;
2396;SDS011;1209;48.410;9.054;2022-07-11T03:30:54;1.00;;;1.00;;
2396;SDS011;1209;48.410;9.054;2022-07-11T03:33:20;2.07;;;1.80;;
2396;SDS011;1209;48.410;9.054;2022-07-11T03:35:46;2.20;;;1.50;;
2396;SDS011;1209;48.410;9.054;2022-07-11T03:38:11;6.27;;;1.80;;
2396;SDS011;1209;48.410;9.054;2022-07-11T03:40:38;4.03;;;1.50;;
2396;SDS011;1209;48.410;9.054;2022-07-11T03:43:04;2.00;;;1.90;;
2396;SDS011;1209;48.410;9.054;2022-07-11T03:45:29;1.50;;;1.40;;
2396;SDS011;1209;48.410;9.054;2022-07-11T03:47:55;1.50;;;1.40;;
2396;SDS011;1209;48.410;9.054;2022-07-11T03:50:20;1.50;;;1.40;;
2396;SDS011;1209;48.410;9.054;2022-07-11T03:52:45;4.47;;;1.40;;
2396;SDS011;1209;48.410;9.054;2022-07-11T03:55:11;1.53;;;1.47;;
2396;SDS011;1209;48.410;9.054;2022-07-11T03:57:36;1.73;;;1.63;;
2396;SDS011;1209;48.410;9.054;2022-07-11T04:00:03;2.30;;;1.67;;
2396;SDS011;1209;48.410;9.054;2022-07-11T04:02:30;1.50;;;1.40;;
2396;SDS011;1209;48.410;9.054;2022-07-11T04:04:56;1.50;;;1.30;;
2396;SDS011;1209;48.410;9.054;2022-07-11T04:07:21;1.40;;;1.40;;
2396;SDS011;1209;48.410;9.054;2022-07-11T04:09:47;1.60;;;1.50;;
2396;SDS011;1209;48.410;9.054;2022-07-11T04:12:12;2.67;;;1.37;;
2396;SDS011;1209;48.410;9.054;2022-07-11T04:14:37;1.13;;;1.13;;
2396;SDS011;1209;48.410;9.054;2022-07-11T04:17:03;1.30;;;1.30;;
2396;SDS011;1209;48.410;9.054;2022-07-11T04:19:29;3.33;;;1.63;;
2396;SDS011;1209;48.410;9.054;2022-07-11T04:21:54;1.47;;;1.37;;
2396;SDS011;1209;48.410;9.054;2022-07-11T04:24:19;1.10;;;1.10;;
2396;SDS011;1209;48.410;9.054;2022-07-11T04:26:45;1.23;;;1.23;;
2396;SDS011;1209;48.410;9.054;2022-07-11T04:29:10;2.00;;;1.80;;
2396;SDS011;1209;48.410;9.054;2022-07-11T04:31:35;1.63;;;1.53;;
2396;SDS011;1209;48.410;9.054;2022-07-11T04:34:01;1.77;;;1.60;;
2396;SDS011;1209;48.410;9.054;2022-07-11T04:36:26;1.70;;;1.60;;
2396;SDS011;1209;48.410;9.054;2022-07-11T04:38:52;1.90;;;1.27;;
2396;SDS011;1209;48.410;9.054;2022-07-11T04:41:17;1.50;;;1.40;;
2396;SDS011;1209;48.410;9.054;2022-07-11T04:43:42;1.50;;;1.40;;
2396;SDS011;1209;48.410;9.054;2022-07-11T04:46:09;1.93;;;1.50;;
2396;SDS011;1209;48.410;9.054;2022-07-11T04:48:34;2.40;;;1.53;;
2396;SDS011;1209;48.410;9.054;2022-07-11T04:51:03;1.30;;;1.20;;
2396;SDS011;1209;48.410;9.054;2022-07-11T04:53:29;2.67;;;1.50;;
2396;SDS011;1209;48.410;9.054;2022-07-11T04:55:55;1.73;;;1.63;;
2396;SDS011;1209;48.410;9.054;2022-07-11T04:58:20;2.20;;;1.80;;
2396;SDS011;1209;48.410;9.054;2022-07-11T05:00:45;2.23;;;1.50;;
2396;SDS011;1209;48.410;9.054;2022-07-11T05:03:11;2.57;;;2.10;;
2396;SDS011;1209;48.410;9.054;2022-07-11T05:05:36;1.90;;;1.70;;
2396;SDS011;1209;48.410;9.054;2022-07-11T05:08:01;3.60;;;1.70;;
2396;SDS011;1209;48.410;9.054;2022-07-11T05:10:28;3.33;;;1.33;;
2396;SDS011;1209;48.410;9.054;2022-07-11T05:12:56;2.37;;;2.17;;
2396;SDS011;1209;48.410;9.054;2022-07-11T05:15:21;2.10;;;1.40;;
2396;SDS011;1209;48.410;9.054;2022-07-11T05:17:47;1.73;;;1.50;;
2396;SDS011;1209;48.410;9.054;2022-07-11T05:20:13;1.40;;;1.30;;
2396;SDS011;1209;48.410;9.054;2022-07-11T05:22:38;2.30;;;2.10;;
2396;SDS011;1209;48.410;9.054;2022-07-11T05:25:04;1.40;;;1.30;;
2396;SDS011;1209;48.410;9.054;2022-07-11T05:27:30;1.33;;;1.23;;
2396;SDS011;1209;48.410;9.054;2022-07-11T05:29:55;2.17;;;1.40;;
2396;SDS011;1209;48.410;9.054;2022-07-11T05:32:20;1.47;;;1.37;;
2396;SDS011;1209;48.410;9.054;2022-07-11T05:34:46;1.90;;;1.40;;
2396;SDS011;1209;48.410;9.054;2022-07-11T05:37:11;1.23;;;1.23;;
2396;SDS011;1209;48.410;9.054;2022-07-11T05:39:36;1.53;;;1.43;;
2396;SDS011;1209;48.410;9.054;2022-07-11T05:42:02;1.30;;;1.30;;
2396;SDS011;1209;48.410;9.054;2022-07-11T05:44:27;4.20;;;1.50;;
2396;SDS011;1209;48.410;9.054;2022-07-11T05:46:57;2.27;;;1.97;;
2396;SDS011;1209;48.410;9.054;2022-07-11T05:49:23;1.47;;;1.37;;
2396;SDS011;1209;48.410;9.054;2022-07-11T05:51:49;1.40;;;1.37;;
2396;SDS011;1209;48.410;9.054;2022-07-11T05:54:14;2.10;;;2.00;;
2396;SDS011;1209;48.410;9.054;2022-07-11T05:56:41;2.00;;;1.90;;
2396;SDS011;1209;48.410;9.054;2022-07-11T05:59:06;2.00;;;1.90;;
2396;SDS011;1209;48.410;9.054;2022-07-11T06:01:31;1.97;;;1.87;;
2396;SDS011;1209;48.410;9.054;2022-07-11T06:03:57;1.77;;;1.67;;
2396;SDS011;1209;48.410;9.054;2022-07-11T06:06:23;2.43;;;1.80;;
2396;SDS011;1209;48.410;9.054;2022-07-11T06:08:49;2.20;;;1.53;;
2396;SDS011;1209;48.410;9.054;2022-07-11T06:11:14;1.43;;;1.43;;
2396;SDS011;1209;48.410;9.054;2022-07-11T06:13:41;1.70;;;1.60;;
2396;SDS011;1209;48.410;9.054;2022-07-11T06:16:09;1.87;;;1.43;;
2396;SDS011;1209;48.410;9.054;2022-07-11T06:18:36;1.60;;;1.50;;
2396;SDS011;1209;48.410;9.054;2022-07-11T06:21:03;1.83;;;1.73;;
2396;SDS011;1209;48.410;9.054;2022-07-11T06:23:29;2.30;;;1.80;;
2396;SDS011;1209;48.410;9.054;2022-07-11T06:25:55;1.43;;;1.10;;
2396;SDS011;1209;48.410;9.054;2022-07-11T06:28:21;1.80;;;1.70;;
2396;SDS011;1209;48.410;9.054;2022-07-11T06:30:47;1.40;;;1.30;;
2396;SDS011;1209;48.410;9.054;2022-07-11T06:33:12;2.10;;;1.70;;
2396;SDS011;1209;48.410;9.054;2022-07-11T06:35:40;2.33;;;2.07;;
2396;SDS011;1209;48.410;9.054;2022-07-11T06:38:06;3.00;;;2.20;;
2396;SDS011;1209;48.410;9.054;2022-07-11T06:40:31;3.27;;;2.50;;
2396;SDS011;1209;48.410;9.054;2022-07-11T06:42:56;3.73;;;3.13;;
2396;SDS011;1209;48.410;9.054;2022-07-11T06:45:21;2.03;;;1.90;;
2396;SDS011;1209;48.410;9.054;2022-07-11T06:47:47;2.33;;;2.23;;
2396;SDS011;1209;48.410;9.054;2022-07-11T06:50:12;3.90;;;3.47;;
2396;SDS011;1209;48.410;9.054;2022-07-11T06:52:38;2.67;;;2.47;;
2396;SDS011;1209;48.410;9.054;2022-07-11T06:55:03;3.23;;;2.77;;
2396;SDS011;1209;48.410;9.054;2022-07-11T06:57:29;3.93;;;2.87;;
2396;SDS011;1209;48.410;9.054;2022-07-11T06:59:55;3.83;;;3.43;;
2396;SDS011;1209;48.410;9.054;2022-07-11T07:02:20;4.23;;;3.83;;
2396;SDS011;1209;48.410;9.054;2022-07-11T07:04:48;5.10;;;2.87;;
2396;SDS011;1209;48.410;9.054;2022-07-11T07:07:13;2.90;;;2.70;;
2396;SDS011;1209;48.410;9.054;2022-07-11T07:09:39;3.30;;;2.97;;
2396;SDS011;1209;48.410;9.054;2022-07-11T07:12:04;4.47;;;3.30;;
2396;SDS011;1209;48.410;9.054;2022-07-11T07:14:31;2.90;;;2.60;;
2396;SDS011;1209;48.410;9.054;2022-07-11T07:16:56;2.97;;;2.67;;
2396;SDS011;1209;48.410;9.054;2022-07-11T07:19:21;4.00;;;3.00;;
2396;SDS011;1209;48.410;9.054;2022-07-11T07:21:47;3.10;;;2.77;;
2396;SDS011;1209;48.410;9.054;2022-07-11T07:24:12;4.43;;;2.90;;
2396;SDS011;1209;48.410;9.054;2022-07-11T07:26:38;3.50;;;3.20;;
2396;SDS011;1209;48.410;9.054;2022-07-11T07:29:03;3.50;;;3.10;;
2396;SDS011;1209;48.410;9.054;2022-07-11T07:31:28;2.57;;;2.37;;
2396;SDS011;1209;48.410;9.054;2022-07-11T07:33:54;3.53;;;3.20;;
2396;SDS011;1209;48.410;9.054;2022-07-11T07:36:19;4.30;;;3.50;;
2396;SDS011;1209;48.410;9.054;2022-07-11T07:38:45;4.37;;;2.70;;
2396;SDS011;1209;48.410;9.054;2022-07-11T07:41:13;3.03;;;2.70;;
2396;SDS011;1209;48.410;9.054;2022-07-11T07:43:39;3.23;;;2.83;;
2396;SDS011;1209;48.410;9.054;2022-07-11T07:46:04;3.03;;;2.80;;
2396;SDS011;1209;48.410;9.054;2022-07-11T07:48:30;4.43;;;2.87;;
2396;SDS011;1209;48.410;9.054;2022-07-11T07:50:55;2.90;;;2.70;;
2396;SDS011;1209;48.410;9.054;2022-07-11T07:53:21;3.47;;;3.17;;
2396;SDS011;1209;48.410;9.054;2022-07-11T07:55:46;2.93;;;2.70;;
2396;SDS011;1209;48.410;9.054;2022-07-11T07:58:12;3.67;;;3.13;;
2396;SDS011;1209;48.410;9.054;2022-07-11T08:00:37;2.20;;;2.00;;
2396;SDS011;1209;48.410;9.054;2022-07-11T08:03:21;2.30;;;2.10;;
2396;SDS011;1209;48.410;9.054;2022-07-11T08:05:46;3.57;;;2.20;;
2396;SDS011;1209;48.410;9.054;2022-07-11T08:08:12;3.30;;;2.73;;
2396;SDS011;1209;48.410;9.054;2022-07-11T08:10:37;2.80;;;2.30;;
2396;SDS011;1209;48.410;9.054;2022-07-11T08:13:02;2.87;;;2.60;;
2396;SDS011;1209;48.410;9.054;2022-07-11T08:15:28;2.70;;;2.37;;
2396;SDS011;1209;48.410;9.054;2022-07-11T08:17:53;2.40;;;2.20;;
2396;SDS011;1209;48.410;9.054;2022-07-11T08:20:19;2.80;;;2.20;;
2396;SDS011;1209;48.410;9.054;2022-07-11T08:22:44;2.57;;;2.37;;
2396;SDS011;1209;48.410;9.054;2022-07-11T08:25:09;2.47;;;2.27;;
2396;SDS011;1209;48.410;9.054;2022-07-11T08:27:35;1.93;;;1.80;;
2396;SDS011;1209;48.410;9.054;2022-07-11T08:30:03;3.33;;;1.67;;
2396;SDS011;1209;48.410;9.054;2022-07-11T08:32:32;2.17;;;1.50;;
2396;SDS011;1209;48.410;9.054;2022-07-11T08:34:58;1.47;;;1.37;;
2396;SDS011;1209;48.410;9.054;2022-07-11T08:37:23;1.80;;;1.70;;
2396;SDS011;1209;48.410;9.054;2022-07-11T08:39:49;2.30;;;1.77;;
2396;SDS011;1209;48.410;9.054;2022-07-11T08:42:16;2.10;;;2.00;;
2396;SDS011;1209;48.410;9.054;2022-07-11T08:44:43;1.83;;;1.73;;
2396;SDS011;1209;48.410;9.054;2022-07-11T08:47:09;3.00;;;2.10;;
2396;SDS011;1209;48.410;9.054;2022-07-11T08:49:36;2.23;;;1.43;;
2396;SDS011;1209;48.410;9.054;2022-07-11T08:52:01;1.50;;;1.40;;
2396;SDS011;1209;48.410;9.054;2022-07-11T08:54:28;1.20;;;1.13;;
2396;SDS011;1209;48.410;9.054;2022-07-11T08:56:54;1.67;;;1.57;;
2396;SDS011;1209;48.410;9.054;2022-07-11T08:59:21;5.77;;;1.70;;
2396;SDS011;1209;48.410;9.054;2022-07-11T09:01:48;1.70;;;1.60;;
2396;SDS011;1209;48.410;9.054;2022-07-11T09:04:16;1.03;;;1.03;;
2396;SDS011;1209;48.410;9.054;2022-07-11T09:06:42;1.40;;;1.30;;
2396;SDS011;1209;48.410;9.054;2022-07-11T09:09:07;1.30;;;1.20;;
2396;SDS011;1209;48.410;9.054;2022-07-11T09:11:49;1.00;;;1.00;;
2396;SDS011;1209;48.410;9.054;2022-07-11T09:14:23;0.80;;;0.80;;
2396;SDS011;1209;48.410;9.054;2022-07-11T09:16:53;0.80;;;0.80;;
2396;SDS011;1209;48.410;9.054;2022-07-11T09:19:24;1.00;;;1.00;;
2396;SDS011;1209;48.410;9.054;2022-07-11T09:22:01;2.73;;;1.00;;
2396;SDS011;1209;48.410;9.054;2022-07-11T09:27:45;0.97;;;0.83;;
2396;SDS011;1209;48.410;9.054;2022-07-11T09:32:55;1.00;;;0.93;;
2396;SDS011;1209;48.410;9.054;2022-07-11T09:35:32;1.07;;;0.93;;
2396;SDS011;1209;48.410;9.054;2022-07-11T09:38:10;0.83;;;0.83;;
2396;SDS011;1209;48.410;9.054;2022-07-11T09:40:42;0.90;;;0.90;;
2396;SDS011;1209;48.410;9.054;2022-07-11T09:43:09;0.63;;;0.63;;
2396;SDS011;1209;48.410;9.054;2022-07-11T09:45:34;1.03;;;0.80;;
2396;SDS011;1209;48.410;9.054;2022-07-11T09:48:10;0.93;;;0.93;;
2396;SDS011;1209;48.410;9.054;2022-07-11T09:50:37;0.90;;;0.90;;
2396;SDS011;1209;48.410;9.054;2022-07-11T09:53:08;0.80;;;0.80;;
2396;SDS011;1209;48.410;9.054;2022-07-11T09:55:39;1.70;;;0.90;;
2396;SDS011;1209;48.410;9.054;2022-07-11T09:58:12;0.80;;;0.80;;
2396;SDS011;1209;48.410;9.054;2022-07-11T10:00:39;1.10;;;1.00;;
2396;SDS011;1209;48.410;9.054;2022-07-11T10:03:05;0.77;;;0.77;;
2396;SDS011;1209;48.410;9.054;2022-07-11T10:05:32;1.10;;;1.00;;
2396;SDS011;1209;48.410;9.054;2022-07-11T10:07:59;0.60;;;0.60;;
2396;SDS011;1209;48.410;9.054;2022-07-11T10:10:25;0.70;;;0.70;;
2396;SDS011;1209;48.410;9.054;2022-07-11T10:12:51;0.53;;;0.53;;
2396;SDS011;1209;48.410;9.054;2022-07-11T10:15:51;0.60;;;0.60;;
2396;SDS011;1209;48.410;9.054;2022-07-11T10:21:09;0.80;;;0.80;;
2396;SDS011;1209;48.410;9.054;2022-07-11T10:26:24;1.17;;;0.67;;
2396;SDS011;1209;48.410;9.054;2022-07-11T10:28:57;0.70;;;0.70;;
2396;SDS011;1209;48.410;9.054;2022-07-11T10:31:25;0.90;;;0.90;;
2396;SDS011;1209;48.410;9.054;2022-07-11T10:36:26;0.77;;;0.77;;
2396;SDS011;1209;48.410;9.054;2022-07-11T10:41:50;1.30;;;0.70;;
2396;SDS011;1209;48.410;9.054;2022-07-11T10:44:16;0.60;;;0.60;;
2396;SDS011;1209;48.410;9.054;2022-07-11T10:46:42;0.63;;;0.63;;
2396;SDS011;1209;48.410;9.054;2022-07-11T11:05:48;0.83;;;0.83;;
2396;SDS011;1209;48.410;9.054;2022-07-11T11:10:58;0.70;;;0.70;;
2396;SDS011;1209;48.410;9.054;2022-07-11T11:13:25;0.60;;;0.60;;
2396;SDS011;1209;48.410;9.054;2022-07-11T11:15:51;0.77;;;0.77;;
2396;SDS011;1209;48.410;9.054;2022-07-11T11:20:47;0.63;;;0.63;;
2396;SDS011;1209;48.410;9.054;2022-07-11T11:23:39;1.07;;;0.97;;
2396;SDS011;1209;48.410;9.054;2022-07-11T11:28:57;0.80;;;0.80;;
2396;SDS011;1209;48.410;9.054;2022-07-11T11:31:31;0.87;;;0.87;;
2396;SDS011;1209;48.410;9.054;2022-07-11T11:33:57;0.70;;;0.70;;
2396;SDS011;1209;48.410;9.054;2022-07-11T11:36:24;0.53;;;0.53;;
2396;SDS011;1209;48.410;9.054;2022-07-11T11:38:51;0.87;;;0.87;;
2396;SDS011;1209;48.410;9.054;2022-07-11T11:41:26;0.80;;;0.80;;
2396;SDS011;1209;48.410;9.054;2022-07-11T11:43:54;1.03;;;0.97;;
2396;SDS011;1209;48.410;9.054;2022-07-11T11:46:24;1.13;;;0.90;;
2396;SDS011;1209;48.410;9.054;2022-07-11T11:48:53;1.13;;;1.00;;
2396;SDS011;1209;48.410;9.054;2022-07-11T11:51:20;1.20;;;1.10;;
2396;SDS011;1209;48.410;9.054;2022-07-11T11:53:54;1.67;;;0.83;;
2396;SDS011;1209;48.410;9.054;2022-07-11T11:56:21;0.77;;;0.77;;
2396;SDS011;1209;48.410;9.054;2022-07-11T11:58:54;0.80;;;0.80;;
2396;SDS011;1209;48.410;9.054;2022-07-11T12:01:24;1.27;;;0.80;;
2396;SDS011;1209;48.410;9.054;2022-07-11T12:03:51;1.10;;;0.90;;
2396;SDS011;1209;48.410;9.054;2022-07-11T12:06:26;1.03;;;0.80;;
2396;SDS011;1209;48.410;9.054;2022-07-11T12:08:52;0.60;;;0.60;;
2396;SDS011;1209;48.410;9.054;2022-07-11T12:11:34;0.77;;;0.77;;
2396;SDS011;1209;48.410;9.054;2022-07-11T12:14:04;0.90;;;0.80;;
2396;SDS011;1209;48.410;9.054;2022-07-11T12:16:32;0.80;;;0.80;;
2396;SDS011;1209;48.410;9.054;2022-07-11T12:19:06;0.90;;;0.90;;
2396;SDS011;1209;48.410;9.054;2022-07-11T12:21:52;0.77;;;0.77;;
2396;SDS011;1209;48.410;9.054;2022-07-11T12:24:22;0.77;;;0.77;;
2396;SDS011;1209;48.410;9.054;2022-07-11T12:26:51;0.70;;;0.70;;
2396;SDS011;1209;48.410;9.054;2022-07-11T12:29:17;0.93;;;0.93;;
2396;SDS011;1209;48.410;9.054;2022-07-11T12:31:51;0.70;;;0.70;;
2396;SDS011;1209;48.410;9.054;2022-07-11T12:34:23;0.60;;;0.60;;
2396;SDS011;1209;48.410;9.054;2022-07-11T12:37:02;0.70;;;0.70;;
2396;SDS011;1209;48.410;9.054;2022-07-11T12:39:33;0.80;;;0.80;;
2396;SDS011;1209;48.410;9.054;2022-07-11T12:42:00;0.60;;;0.60;;
2396;SDS011;1209;48.410;9.054;2022-07-11T12:44:53;0.60;;;0.60;;
2396;SDS011;1209;48.410;9.054;2022-07-11T12:47:33;0.70;;;0.70;;
2396;SDS011;1209;48.410;9.054;2022-07-11T12:52:41;0.80;;;0.70;;
2396;SDS011;1209;48.410;9.054;2022-07-11T12:55:10;0.70;;;0.70;;
2396;SDS011;1209;48.410;9.054;2022-07-11T12:57:59;0.70;;;0.70;;
2396;SDS011;1209;48.410;9.054;2022-07-11T13:00:27;1.13;;;1.10;;
2396;SDS011;1209;48.410;9.054;2022-07-11T13:02:53;1.17;;;1.07;;
2396;SDS011;1209;48.410;9.054;2022-07-11T13:05:19;0.93;;;0.73;;
2396;SDS011;1209;48.410;9.054;2022-07-11T13:07:44;0.90;;;0.90;;
2396;SDS011;1209;48.410;9.054;2022-07-11T13:10:28;0.90;;;0.90;;
2396;SDS011;1209;48.410;9.054;2022-07-11T13:13:14;0.90;;;0.90;;
2396;SDS011;1209;48.410;9.054;2022-07-11T13:15:40;0.87;;;0.87;;
2396;SDS011;1209;48.410;9.054;2022-07-11T13:18:05;1.57;;;1.10;;
2396;SDS011;1209;48.410;9.054;2022-07-11T13:20:33;1.00;;;1.00;;
2396;SDS011;1209;48.410;9.054;2022-07-11T13:22:59;0.90;;;0.90;;
2396;SDS011;1209;48.410;9.054;2022-07-11T13:25:26;1.00;;;1.00;;
2396;SDS011;1209;48.410;9.054;2022-07-11T13:27:52;1.00;;;1.00;;
2396;SDS011;1209;48.410;9.054;2022-07-11T13:30:18;0.90;;;0.90;;
2396;SDS011;1209;48.410;9.054;2022-07-11T13:32:46;1.20;;;1.10;;
2396;SDS011;1209;48.410;9.054;2022-07-11T13:35:13;1.27;;;1.17;;
2396;SDS011;1209;48.410;9.054;2022-07-11T13:37:39;0.87;;;0.87;;
2396;SDS011;1209;48.410;9.054;2022-07-11T13:40:08;1.20;;;1.10;;
2396;SDS011;1209;48.410;9.054;2022-07-11T13:42:36;1.00;;;1.00;;
2396;SDS011;1209;48.410;9.054;2022-07-11T13:45:04;1.00;;;1.00;;
2396;SDS011;1209;48.410;9.054;2022-07-11T13:47:30;1.20;;;1.20;;
2396;SDS011;1209;48.410;9.054;2022-07-11T13:49:57;0.80;;;0.80;;
2396;SDS011;1209;48.410;9.054;2022-07-11T13:52:23;0.93;;;0.93;;
2396;SDS011;1209;48.410;9.054;2022-07-11T13:54:48;1.10;;;1.10;;
2396;SDS011;1209;48.410;9.054;2022-07-11T13:57:13;1.80;;;1.23;;
2396;SDS011;1209;48.410;9.054;2022-07-11T13:59:39;1.20;;;1.10;;
2396;SDS011;1209;48.410;9.054;2022-07-11T14:02:05;1.13;;;1.03;;
2396;SDS011;1209;48.410;9.054;2022-07-11T14:04:31;1.33;;;0.93;;
2396;SDS011;1209;48.410;9.054;2022-07-11T14:06:56;1.00;;;1.00;;
2396;SDS011;1209;48.410;9.054;2022-07-11T14:09:22;1.00;;;0.90;;
2396;SDS011;1209;48.410;9.054;2022-07-11T14:11:47;1.10;;;1.00;;
2396;SDS011;1209;48.410;9.054;2022-07-11T14:14:13;1.10;;;1.10;;
2396;SDS011;1209;48.410;9.054;2022-07-11T14:16:38;1.20;;;1.20;;
2396;SDS011;1209;48.410;9.054;2022-07-11T14:19:04;0.90;;;0.90;;
2396;SDS011;1209;48.410;9.054;2022-07-11T14:21:32;1.07;;;1.07;;
2396;SDS011;1209;48.410;9.054;2022-07-11T14:23:58;1.20;;;1.20;;
2396;SDS011;1209;48.410;9.054;2022-07-11T14:26:23;0.93;;;0.93;;
2396;SDS011;1209;48.410;9.054;2022-07-11T14:28:49;1.13;;;1.00;;
2396;SDS011;1209;48.410;9.054;2022-07-11T14:31:17;1.40;;;1.30;;
2396;SDS011;1209;48.410;9.054;2022-07-11T14:33:42;1.40;;;1.30;;
2396;SDS011;1209;48.410;9.054;2022-07-11T14:36:08;1.20;;;1.10;;
2396;SDS011;1209;48.410;9.054;2022-07-11T14:38:34;1.17;;;1.10;;
2396;SDS011;1209;48.410;9.054;2022-07-11T14:40:59;1.10;;;1.00;;
2396;SDS011;1209;48.410;9.054;2022-07-11T14:43:26;1.33;;;1.23;;
2396;SDS011;1209;48.410;9.054;2022-07-11T14:45:56;1.10;;;1.03;;
2396;SDS011;1209;48.410;9.054;2022-07-11T14:48:21;1.50;;;1.40;;
2396;SDS011;1209;48.410;9.054;2022-07-11T14:50:46;2.30;;;1.40;;
2396;SDS011;1209;48.410;9.054;2022-07-11T14:53:12;1.30;;;1.20;;
2396;SDS011;1209;48.410;9.054;2022-07-11T14:55:37;1.27;;;1.27;;
2396;SDS011;1209;48.410;9.054;2022-07-11T14:58:03;1.23;;;1.20;;
2396;SDS011;1209;48.410;9.054;2022-07-11T15:00:28;1.10;;;1.10;;
2396;SDS011;1209;48.410;9.054;2022-07-11T15:02:55;2.80;;;1.50;;
2396;SDS011;1209;48.410;9.054;2022-07-11T15:05:41;1.33;;;1.27;;
2396;SDS011;1209;48.410;9.054;2022-07-11T15:08:07;1.40;;;1.40;;
2396;SDS011;1209;48.410;9.054;2022-07-11T15:10:52;1.40;;;1.30;;
2396;SDS011;1209;48.410;9.054;2022-07-11T15:13:36;2.50;;;2.20;;
2396;SDS011;1209;48.410;9.054;2022-07-11T15:16:01;1.60;;;1.50;;
2396;SDS011;1209;48.410;9.054;2022-07-11T15:18:27;0.90;;;0.90;;
2396;SDS011;1209;48.410;9.054;2022-07-11T15:20:53;1.30;;;1.30;;
2396;SDS011;1209;48.410;9.054;2022-07-11T15:23:18;1.73;;;1.57;;
2396;SDS011;1209;48.410;9.054;2022-07-11T15:25:44;1.53;;;1.43;;
2396;SDS011;1209;48.410;9.054;2022-07-11T15:28:09;1.67;;;1.50;;
2396;SDS011;1209;48.410;9.054;2022-07-11T15:30:35;1.30;;;1.20;;
2396;SDS011;1209;48.410;9.054;2022-07-11T15:33:00;1.73;;;1.63;;
2396;SDS011;1209;48.410;9.054;2022-07-11T15:35:25;1.50;;;1.40;;
2396;SDS011;1209;48.410;9.054;2022-07-11T15:37:51;1.87;;;1.77;;
2396;SDS011;1209;48.410;9.054;2022-07-11T15:40:16;1.33;;;1.23;;
2396;SDS011;1209;48.410;9.054;2022-07-11T15:42:43;4.13;;;1.37;;
2396;SDS011;1209;48.410;9.054;2022-07-11T15:45:09;1.80;;;1.70;;
2396;SDS011;1209;48.410;9.054;2022-07-11T15:47:36;4.60;;;2.20;;
2396;SDS011;1209;48.410;9.054;2022-07-11T15:50:02;2.10;;;1.77;;
2396;SDS011;1209;48.410;9.054;2022-07-11T15:52:29;1.57;;;1.40;;
2396;SDS011;1209;48.410;9.054;2022-07-11T15:54:55;1.70;;;1.60;;
2396;SDS011;1209;48.410;9.054;2022-07-11T15:57:20;1.63;;;1.53;;
2396;SDS011;1209;48.410;9.054;2022-07-11T15:59:45;1.50;;;1.40;;